Nearby METAR Reports

METAR is the scheduled surface weather observation taken hourly at civil and military airport locations.

METAR is an acronym from the French language and roughly translates as Aviation Routine Weather Report.

 

EGPL - Benbecula Island, United Kingdom
Distance from station: WNW 41mi, 66km
Updated: 15/07/2019 23:20
Clear
Clear
 Wind from SW
Wind: SW 7 mph , 11 km/h
Temperature: 15°C
Dew Point: 14°C
Humidity: 94%
Barometer: 1018 hPa
Clouds: Clear
Visibility: 6 miles , 10 km
2019/07/15 22:20 EGPL 152220Z AUTO 22006KT 9999 NCD 15/14 Q1018
EGPU - Tiree Island, United Kingdom
Distance from station: SSW 56mi, 90km
Updated: 15/07/2019 22:50
Clear
Clear
 Wind from varies
Wind: varies 3 mph , 6 km/h
Temperature: 14°C
Dew Point: 14°C
Humidity: 100%
Barometer: 1018 hPa
Clouds: Clear
Visibility: 4 miles , 6 km
2019/07/15 21:50 EGPU 152150Z AUTO VRB03KT 6000 NCD 14/14 Q1018
 
EGEO - Oban Airport, United Kingdom
Distance from station: SE 65mi, 105km
Updated: 13/07/2019 16:20
NOT Current
Partly cloudy
Partly cloudy
 Wind from WNW
Wind: WNW 13 mph , 20 km/h
Temperature: 17°C
Dew Point: 12°C
Humidity: 73%
Barometer: 1025 hPa
Clouds: Partly cloudy
Visibility: 6 miles , 10 km
Cloud details: Partly cloudy 1280 m
2019/07/13 15:20 EGEO 131520Z 29011KT 9999 SCT042 17/12 Q1025
EGPO - Stornoway, United Kingdom
Distance from station: 0 66mi, 106km
Updated: 15/07/2019 23:20
Clear
Clear
 Wind from S
Wind: S 8 mph , 13 km/h
Temperature: 14°C
Dew Point: 12°C
Humidity: 88%
Barometer: 1018 hPa
Clouds: Clear
Visibility: 6 miles , 10 km
2019/07/15 22:20 EGPO 152220Z AUTO 17007KT 9999 NCD 14/12 Q1018
 
EGPE - Inverness/Dalcro, United Kingdom
Distance from station: ENE 88mi, 141km
Updated: 15/07/2019 23:20
Few Clouds
Few Clouds
 Wind from ENE
Wind: ENE 3 mph , 6 km/h
Temperature: 13°C
Dew Point: 12°C
Humidity: 94%
Barometer: 1019 hPa
Clouds: Few Clouds
Visibility: 6 miles , 10 km
Cloud details: Few Clouds 1006 m
2019/07/15 22:20 EGPE 152220Z AUTO 07003KT 9999 FEW033/// 13/12 Q1019
EGQA - Tain Range (saws, United Kingdom
Distance from station: ENE 97mi, 156km
Updated: 12/07/2019 09:50
NOT Current
Mist, Mostly cloudy
Mist, Mostly cloudy
 Wind from ENE
Wind: ENE 6 mph , 9 km/h
Summary: Mist
Clouds: Mostly cloudy
Visibility: 1 mile , 2 km
Cloud details: Mostly cloudy 61 m
2019/07/12 08:50 EGQA 120850Z 06005KT 2000 BR BKN002 14/// Q1015 AMB
 
EGQK - Kinloss Raf, United Kingdom
Distance from station: ENE 107mi, 171km
Updated: 15/07/2019 22:50
Mostly cloudy
Mostly cloudy
 Wind from NW
Wind: NW 3 mph , 6 km/h
Temperature: 13°C
Dew Point: 12°C
Humidity: 94%
Barometer: 1019 hPa
Clouds: Mostly cloudy
Visibility: 6 miles , 10 km
Cloud details: Partly cloudy 183 m
Mostly cloudy 1524 m
2019/07/15 21:50 EGQK 152150Z AUTO 32003KT 9999 SCT006/// BKN050/// 13/12 Q1019
EGPI - Islay/Port Ellen, United Kingdom
Distance from station: S 110mi, 177km
Updated: 15/07/2019 22:50
Clear
Clear
 Wind from SE
Wind: SE 7 mph , 11 km/h
Temperature: 13°C
Dew Point: 13°C
Humidity: 100%
Barometer: 1018 hPa
Clouds: Clear
Visibility: 6 miles , 10 km
2019/07/15 21:50 EGPI 152150Z AUTO 13006KT 9999 NCD 13/13 Q1018
 
EGQS - Lossiemouth Raf, United Kingdom
Distance from station: ENE 117mi, 188km
Updated: 15/07/2019 22:50
Mostly cloudy
Mostly cloudy
 Wind from N
Wind: N 5 mph , 7 km/h
Temperature: 14°C
Dew Point: 13°C
Humidity: 94%
Barometer: 1018 hPa
Clouds: Mostly cloudy
Visibility: 6 miles , 10 km
Cloud details: Partly cloudy 152 m
Mostly cloudy 1524 m
Mostly cloudy 2134 m
2019/07/15 21:50 EGQS 152150Z 01004KT 9999 SCT005 BKN050 BKN070 14/13 Q1018 RMK YLO1
EGPF - Glasgow Airport, United Kingdom
Distance from station: SE 121mi, 195km
Updated: 15/07/2019 23:20
Clear
Clear
 Wind from varies
Wind: varies 2 mph , 4 km/h
Temperature: 14°C
Dew Point: 12°C
Humidity: 88%
Barometer: 1019 hPa
Clouds: Clear
Visibility: 6 miles , 10 km
2019/07/15 22:20 EGPF 152220Z AUTO VRB02KT 9999 NCD 14/12 Q1019
 
EGEC - Campbeltown, United Kingdom
Distance from station: SSE 129mi, 207km
Updated: 15/07/2019 18:20
NOT Current
Clear
Clear
 Wind from SSE
Wind: SSE 14 mph , 22 km/h
Temperature: 17°C
Dew Point: 13°C
Humidity: 77%
Barometer: 1019 hPa
Summary: Clear
Visibility: greater than 7 miles , 10 km
2019/07/15 17:20 EGEC 151720Z 15012KT CAVOK 17/13 Q1019
EGPN - Dundee/Riverside, United Kingdom
Distance from station: ESE 137mi, 221km
Updated: 15/07/2019 20:20
NOT Current
Few Clouds
Few Clouds
 Wind from E
Wind: E 8 mph , 13 km/h
Temperature: 18°C
Dew Point: 15°C
Humidity: 83%
Barometer: 1019 hPa
Clouds: Few Clouds
Visibility: 6 miles , 10 km
Cloud details: Few Clouds 914 m
2019/07/15 19:20 EGPN 151920Z 08007KT 9999 FEW030 18/15 Q1019
 
EGPK - Prestwick(Civ/Na, United Kingdom
Distance from station: SSE 139mi, 224km
Updated: 15/07/2019 23:20
Few Clouds
Few Clouds
 Wind from E
Wind: E 5 mph , 7 km/h
Temperature: 14°C
Dew Point: 12°C
Humidity: 88%
Barometer: 1019 hPa
Clouds: Few Clouds
Visibility: 6 miles , 10 km
Cloud details: Few Clouds 1219 m
2019/07/15 22:20 EGPK 152220Z 08004KT 9999 FEW040 14/12 Q1019
EGQL - Leuchars Raf, United Kingdom
Distance from station: ESE 145mi, 233km
Updated: 15/07/2019 22:50
Clear
Clear
 Wind from NNE
Wind: NNE 5 mph , 7 km/h
Temperature: 13°C
Dew Point: 13°C
Humidity: 100%
Barometer: 1019 hPa
Summary: Clear
Visibility: greater than 7 miles , 10 km
2019/07/15 21:50 EGQL 152150Z 02004KT CAVOK 13/13 Q1019 BLU
 
EGPH - Edinburgh Airpor, United Kingdom
Distance from station: SE 145mi, 234km
Updated: 15/07/2019 23:20
Clear
Clear
 Wind from WSW
Wind: WSW 3 mph , 6 km/h
Temperature: 14°C
Dew Point: 13°C
Humidity: 94%
Barometer: 1019 hPa
Summary: Clear
Visibility: greater than 7 miles , 10 km
2019/07/15 22:20 EGPH 152220Z 25003KT CAVOK 14/13 Q1019
EGPC - Wick, United Kingdom
Distance from station: NE 146mi, 234km
Updated: 15/07/2019 23:20
Clear
Clear
 Wind from ESE
Wind: ESE 2 mph , 4 km/h
Temperature: 11°C
Dew Point: 11°C
Humidity: 100%
Barometer: 1019 hPa
Clouds: Clear
Visibility: 6 miles , 10 km
2019/07/15 22:20 EGPC 152220Z AUTO 12002KT 9999 NCD 11/11 Q1019

-

free counters
QR Code Twitter Scottish Weather Network UK Weather Network
Argyll House B & B

Argyll House B & B is situated in North West Skye and is the perfect base to see all that the Isle of Skye has to offer. We are just about full for 2019. Bookings are been taken for 2020.